Time;durP1;ratioP1;P1;durP2;ratioP2;P2;SDS_P1;SDS_P2;PMS_P1;PMS_P2;Temp;Humidity;BMP_temperature;BMP_pressure;BME280_temperature;BME280_humidity;BME280_pressure;Samples;Min_cycle;Max_cycle;Signal;HPM_P1;HPM_P2
2021/10/10 00:00:51;;;;;;;35.73;25.30;;;8.60;77.20;;;;;;2627280;30;20705;-77
2021/10/10 00:03:17;;;;;;;30.97;24.07;;;8.50;77.30;;;;;;2624936;30;20749;-79
2021/10/10 00:05:43;;;;;;;34.17;23.57;;;8.20;78.20;;;;;;2626129;30;20530;-79
2021/10/10 00:08:09;;;;;;;30.23;24.60;;;8.20;78.20;;;;;;2629433;38;20186;-79
2021/10/10 00:10:35;;;;;;;26.77;23.80;;;8.30;77.70;;;;;;2630488;30;20221;-79
2021/10/10 00:13:01;;;;;;;27.27;22.30;;;8.50;77.00;;;;;;2629495;30;20372;-78
2021/10/10 00:15:26;;;;;;;26.40;22.37;;;8.50;76.80;;;;;;2629907;30;20367;-78
2021/10/10 00:17:58;;;;;;;30.60;24.90;;;8.60;76.50;;;;;;2629160;38;20197;-78
2021/10/10 00:20:25;;;;;;;33.73;22.80;;;8.60;76.40;;;;;;2629151;30;20193;-78
2021/10/10 00:22:51;;;;;;;28.80;22.83;;;8.60;76.30;;;;;;2629518;30;20405;-78
2021/10/10 00:25:18;;;;;;;29.30;22.33;;;8.60;76.40;;;;;;2629042;30;20386;-80
2021/10/10 00:27:44;;;;;;;29.27;21.40;;;8.60;76.70;;;;;;2629765;30;20182;-78
2021/10/10 00:30:10;;;;;;;29.10;22.50;;;8.70;76.30;;;;;;2630928;30;20402;-78
2021/10/10 00:32:36;;;;;;;32.93;22.73;;;8.70;76.30;;;;;;2631611;30;20202;-78
2021/10/10 00:35:03;;;;;;;26.20;22.33;;;8.40;77.00;;;;;;2629527;38;20375;-81
2021/10/10 00:37:28;;;;;;;37.07;22.87;;;8.40;76.60;;;;;;2629976;38;20449;-79
2021/10/10 00:39:55;;;;;;;27.93;22.13;;;8.20;77.10;;;;;;2630854;30;20397;-78
2021/10/10 00:42:21;;;;;;;25.43;22.60;;;8.30;77.00;;;;;;2626459;38;20577;-77
2021/10/10 00:44:48;;;;;;;34.20;23.07;;;8.40;76.60;;;;;;2630616;30;20410;-77
2021/10/10 00:47:15;;;;;;;29.20;23.87;;;8.40;76.60;;;;;;2629788;30;20395;-78
2021/10/10 00:49:41;;;;;;;30.60;21.80;;;8.30;76.70;;;;;;2629145;38;20397;-78
2021/10/10 00:52:11;;;;;;;33.40;22.70;;;7.90;77.30;;;;;;2629365;30;20525;-78
2021/10/10 00:54:40;;;;;;;28.20;20.03;;;8.00;77.20;;;;;;2629535;38;20342;-78
2021/10/10 00:57:08;;;;;;;30.47;22.20;;;8.10;77.10;;;;;;2629941;30;20334;-77
2021/10/10 00:59:37;;;;;;;23.67;20.23;;;8.20;76.60;;;;;;2628870;38;20882;-78
2021/10/10 01:02:03;;;;;;;24.07;21.60;;;7.80;77.70;;;;;;2630075;38;20371;-82
2021/10/10 01:04:29;;;;;;;25.80;21.50;;;7.80;77.90;;;;;;2631803;38;20391;-82
2021/10/10 01:06:55;;;;;;;28.47;22.10;;;7.90;77.50;;;;;;2631438;30;20300;-82
2021/10/10 01:09:21;;;;;;;30.43;25.17;;;8.00;76.80;;;;;;2631163;30;20414;-82
2021/10/10 01:11:53;;;;;;;29.50;23.20;;;8.10;75.90;;;;;;2630992;30;20775;-79
2021/10/10 01:14:20;;;;;;;36.53;23.97;;;8.10;76.60;;;;;;2631323;30;20382;-82
2021/10/10 01:16:46;;;;;;;32.60;23.83;;;8.20;76.20;;;;;;2632413;30;20365;-82
2021/10/10 01:19:12;;;;;;;32.97;24.57;;;7.80;77.20;;;;;;2633209;30;20393;-81
2021/10/10 01:21:37;;;;;;;26.43;21.60;;;7.70;78.00;;;;;;2632543;30;20578;-81
2021/10/10 01:24:11;;;;;;;34.50;21.37;;;7.50;78.30;;;;;;2630206;38;20804;-81
2021/10/10 01:26:37;;;;;;;31.20;22.60;;;7.30;78.80;;;;;;2630790;30;20202;-81
2021/10/10 01:29:03;;;;;;;29.47;22.53;;;7.60;78.20;;;;;;2633200;30;20463;-82
2021/10/10 01:31:29;;;;;;;26.93;22.67;;;7.70;77.40;;;;;;2631287;38;20777;-81
2021/10/10 01:33:56;;;;;;;33.30;23.70;;;7.70;77.60;;;;;;2631158;38;20197;-82
2021/10/10 01:36:22;;;;;;;28.13;21.43;;;7.70;76.80;;;;;;2629137;38;20365;-82
2021/10/10 01:38:47;;;;;;;29.67;21.93;;;8.00;77.10;;;;;;2631155;30;20413;-82
2021/10/10 01:41:13;;;;;;;28.37;21.87;;;7.60;78.80;;;;;;2632767;30;20681;-81
2021/10/10 01:43:40;;;;;;;30.70;22.67;;;7.50;78.20;;;;;;2631340;38;20541;-82
2021/10/10 01:46:06;;;;;;;34.20;22.30;;;7.60;77.80;;;;;;2633079;30;20963;-81
2021/10/10 01:48:34;;;;;;;31.60;24.57;;;7.80;77.10;;;;;;2632199;30;20422;-80
2021/10/10 01:51:00;;;;;;;31.57;22.00;;;7.70;76.40;;;;;;2632717;38;20733;-81
2021/10/10 01:53:26;;;;;;;30.87;22.63;;;7.90;76.40;;;;;;2631686;30;20403;-81
2021/10/10 01:55:53;;;;;;;33.50;23.40;;;8.00;76.40;;;;;;2630742;38;20386;-81
2021/10/10 01:58:19;;;;;;;33.20;22.60;;;7.80;77.10;;;;;;2631890;38;20182;-81
2021/10/10 02:00:47;;;;;;;29.10;22.10;;;7.60;77.50;;;;;;2632228;30;20359;-82
2021/10/10 02:03:19;;;;;;;29.03;22.23;;;7.60;77.30;;;;;;2631606;30;20377;-82
2021/10/10 02:05:45;;;;;;;27.63;22.10;;;7.70;77.00;;;;;;2631411;38;20354;-79
2021/10/10 02:08:12;;;;;;;35.27;23.50;;;7.70;76.70;;;;;;2632467;30;20402;-80
2021/10/10 02:10:39;;;;;;;27.30;21.77;;;7.50;76.90;;;;;;2631936;30;20354;-83
2021/10/10 02:13:05;;;;;;;28.67;21.50;;;7.30;78.00;;;;;;2629944;30;20346;-81
2021/10/10 02:15:30;;;;;;;27.50;21.27;;;7.30;77.60;;;;;;2628671;30;20374;-82
2021/10/10 02:17:56;;;;;;;35.13;23.37;;;7.30;77.30;;;;;;2630158;30;20182;-81
2021/10/10 02:20:23;;;;;;;26.80;20.53;;;7.30;76.90;;;;;;2629855;38;20584;-82
2021/10/10 02:22:49;;;;;;;27.67;23.00;;;7.30;76.90;;;;;;2632092;30;20193;-80
2021/10/10 02:25:15;;;;;;;26.93;22.53;;;7.40;76.50;;;;;;2630406;30;20342;-82
2021/10/10 02:27:41;;;;;;;30.10;22.70;;;7.50;76.40;;;;;;2629535;38;20383;-83
2021/10/10 02:30:07;;;;;;;29.43;23.30;;;7.60;76.20;;;;;;2628399;38;20197;-82
2021/10/10 02:32:32;;;;;;;32.03;22.30;;;7.30;76.80;;;;;;2629801;30;21066;-81
2021/10/10 02:34:58;;;;;;;32.53;24.43;;;7.30;77.00;;;;;;2630035;30;20410;-82
2021/10/10 02:37:25;;;;;;;30.80;23.53;;;7.20;76.80;;;;;;2630674;30;20207;-82
2021/10/10 02:39:52;;;;;;;30.60;22.10;;;7.30;76.60;;;;;;2629358;38;20338;-80
2021/10/10 02:42:18;;;;;;;29.87;22.07;;;7.30;76.70;;;;;;2629054;38;20386;-81
2021/10/10 02:44:44;;;;;;;30.00;21.50;;;7.40;76.70;;;;;;2630481;30;20805;-82
2021/10/10 02:47:10;;;;;;;24.43;20.07;;;7.20;77.50;;;;;;2629531;38;20377;-83
2021/10/10 02:49:37;;;;;;;29.40;21.07;;;7.00;78.20;;;;;;2629691;30;20479;-82
2021/10/10 02:52:03;;;;;;;29.53;21.53;;;6.80;78.40;;;;;;2630358;30;20182;-82
2021/10/10 02:54:29;;;;;;;31.90;22.80;;;7.10;77.60;;;;;;2630433;30;20394;-80
2021/10/10 02:56:54;;;;;;;30.70;23.20;;;7.20;76.60;;;;;;2628413;38;20402;-81
2021/10/10 02:59:21;;;;;;;29.97;22.33;;;7.50;76.50;;;;;;2631331;30;20189;-79
2021/10/10 03:01:47;;;;;;;32.80;21.43;;;7.40;76.70;;;;;;2629539;38;20185;-84
2021/10/10 03:04:13;;;;;;;37.17;23.63;;;7.00;77.90;;;;;;2630720;30;20425;-82
2021/10/10 03:06:39;;;;;;;29.27;21.60;;;7.10;77.50;;;;;;2629660;30;20189;-83
2021/10/10 03:09:05;;;;;;;30.00;20.67;;;7.20;77.20;;;;;;2629881;30;20366;-81
2021/10/10 03:11:30;;;;;;;31.00;21.67;;;7.00;77.40;;;;;;2628796;38;20254;-81
2021/10/10 03:13:56;;;;;;;24.83;21.40;;;6.90;78.00;;;;;;2630482;30;20189;-80
2021/10/10 03:16:21;;;;;;;27.83;21.10;;;7.10;77.30;;;;;;2631852;30;20701;-81
2021/10/10 03:18:47;;;;;;;26.60;20.63;;;7.10;76.50;;;;;;2630043;38;20595;-82
2021/10/10 03:21:13;;;;;;;24.27;20.67;;;7.10;76.40;;;;;;2630369;38;20623;-81
2021/10/10 03:23:38;;;;;;;27.87;21.17;;;7.20;76.70;;;;;;2632566;38;20625;-82
2021/10/10 03:26:04;;;;;;;27.27;20.20;;;7.10;76.80;;;;;;2630365;30;20659;-82
2021/10/10 03:28:30;;;;;;;34.13;22.10;;;7.00;77.10;;;;;;2631426;30;20186;-81
2021/10/10 03:30:58;;;;;;;28.10;21.10;;;7.10;77.20;;;;;;2629470;38;20445;-81
2021/10/10 03:33:23;;;;;;;24.53;19.30;;;7.10;77.20;;;;;;2631399;30;20435;-82
2021/10/10 03:35:50;;;;;;;22.40;19.37;;;7.10;77.10;;;;;;2634431;30;20346;-81
2021/10/10 03:38:16;;;;;;;30.00;20.43;;;7.20;76.70;;;;;;2629632;38;20225;-82
2021/10/10 03:40:42;;;;;;;23.20;19.07;;;7.30;76.50;;;;;;2630719;30;20357;-81
2021/10/10 03:43:07;;;;;;;34.40;20.00;;;7.10;76.80;;;;;;2629932;30;20198;-82
2021/10/10 03:45:33;;;;;;;22.43;18.10;;;7.20;76.50;;;;;;2631310;30;20240;-82
2021/10/10 03:47:59;;;;;;;22.03;17.90;;;7.20;76.60;;;;;;2632586;30;20197;-81
2021/10/10 03:50:26;;;;;;;22.80;19.13;;;7.10;76.50;;;;;;2631420;38;20650;-80
2021/10/10 03:52:53;;;;;;;20.70;17.00;;;6.60;77.70;;;;;;2632101;30;20192;-82
2021/10/10 03:55:34;;;;;;;23.23;17.90;;;6.50;78.40;;;;;;2631878;30;20369;-82
2021/10/10 03:58:15;;;;;;;29.13;18.80;;;6.70;77.90;;;;;;2632184;30;20534;-82
2021/10/10 04:00:42;;;;;;;24.43;18.00;;;6.80;77.20;;;;;;2631991;30;20362;-81
2021/10/10 04:03:10;;;;;;;19.33;17.23;;;6.90;77.10;;;;;;2631762;30;20906;-82
2021/10/10 04:05:40;;;;;;;23.50;17.53;;;6.90;76.90;;;;;;2631314;30;20442;-82
2021/10/10 04:08:06;;;;;;;23.23;17.93;;;7.10;76.40;;;;;;2630999;30;20490;-82
2021/10/10 04:10:34;;;;;;;37.90;17.90;;;7.10;76.20;;;;;;2632399;30;20446;-81
2021/10/10 04:13:00;;;;;;;23.20;17.27;;;7.10;76.40;;;;;;2635303;30;20585;-81
2021/10/10 04:15:27;;;;;;;19.40;16.87;;;6.90;76.60;;;;;;2632156;30;20347;-80
2021/10/10 04:17:52;;;;;;;19.10;16.90;;;6.80;76.90;;;;;;2631451;30;20301;-83
2021/10/10 04:20:18;;;;;;;21.00;16.73;;;6.80;77.00;;;;;;2627187;38;20421;-80
2021/10/10 04:22:45;;;;;;;23.30;17.50;;;6.90;76.60;;;;;;2632904;30;20209;-82
2021/10/10 04:25:11;;;;;;;22.57;18.57;;;6.70;76.80;;;;;;2630645;30;20197;-82
2021/10/10 04:27:44;;;;;;;19.70;16.87;;;6.60;77.10;;;;;;2631826;30;20389;-82
2021/10/10 04:30:13;;;;;;;20.00;17.47;;;6.50;77.30;;;;;;2631778;30;20342;-80
2021/10/10 04:32:41;;;;;;;21.00;18.40;;;6.50;77.40;;;;;;2630327;38;20375;-82
2021/10/10 04:35:18;;;;;;;23.93;16.40;;;6.60;77.00;;;;;;2632423;30;20962;-80
2021/10/10 04:37:44;;;;;;;23.00;17.80;;;6.40;77.60;;;;;;2632526;30;20357;-81
2021/10/10 04:40:11;;;;;;;22.30;17.10;;;6.70;77.10;;;;;;2630917;30;20360;-81
2021/10/10 04:42:37;;;;;;;19.07;17.00;;;6.60;76.90;;;;;;2631447;30;21000;-81
2021/10/10 04:45:04;;;;;;;27.60;17.00;;;6.50;77.20;;;;;;2630869;30;20952;-80
2021/10/10 04:47:30;;;;;;;21.80;15.50;;;6.30;77.30;;;;;;2629709;30;20463;-81
2021/10/10 04:49:56;;;;;;;26.27;18.30;;;6.40;77.40;;;;;;2631119;38;20996;-81
2021/10/10 04:52:22;;;;;;;19.70;16.60;;;6.50;76.90;;;;;;2628808;30;20198;-82
2021/10/10 04:54:49;;;;;;;23.27;17.90;;;6.60;76.30;;;;;;2631901;30;20193;-82
2021/10/10 04:57:15;;;;;;;20.60;16.03;;;6.50;76.50;;;;;;2630137;38;20393;-80
2021/10/10 04:59:49;;;;;;;21.00;16.37;;;6.50;76.40;;;;;;2630870;30;20421;-79
2021/10/10 05:02:22;;;;;;;24.60;16.63;;;6.60;75.90;;;;;;2630761;38;20477;-82
2021/10/10 05:04:50;;;;;;;20.40;16.00;;;6.60;76.00;;;;;;2632031;30;20382;-81
2021/10/10 05:07:17;;;;;;;18.17;16.20;;;6.60;76.20;;;;;;2629317;38;20355;-81
2021/10/10 05:09:43;;;;;;;21.80;16.63;;;6.60;75.90;;;;;;2630120;30;20358;-81
2021/10/10 05:12:09;;;;;;;19.30;15.67;;;6.50;76.30;;;;;;2629891;30;21128;-81
2021/10/10 05:14:35;;;;;;;19.77;15.83;;;6.40;76.40;;;;;;2631388;30;20353;-81
2021/10/10 05:17:02;;;;;;;21.60;15.93;;;6.40;76.50;;;;;;2631750;30;20185;-82
2021/10/10 05:19:27;;;;;;;21.23;15.67;;;6.30;77.00;;;;;;2632305;30;20345;-80
2021/10/10 05:21:53;;;;;;;22.50;16.57;;;6.10;77.80;;;;;;2631558;30;20457;-79
2021/10/10 05:24:19;;;;;;;21.10;17.23;;;6.00;78.20;;;;;;2630283;38;20684;-82
2021/10/10 05:26:44;;;;;;;23.60;17.53;;;6.30;77.20;;;;;;2629770;30;20273;-81
2021/10/10 05:29:10;;;;;;;21.10;17.97;;;6.20;77.50;;;;;;2630083;38;20198;-80
2021/10/10 05:31:36;;;;;;;23.03;18.77;;;6.30;76.70;;;;;;2629757;38;20194;-81
2021/10/10 05:34:01;;;;;;;25.53;17.37;;;6.40;76.30;;;;;;2633211;30;20563;-81
2021/10/10 05:36:27;;;;;;;27.10;19.77;;;6.60;75.90;;;;;;2631968;30;20239;-82
2021/10/10 05:38:53;;;;;;;21.93;18.37;;;6.60;76.20;;;;;;2630225;38;20186;-81
2021/10/10 05:41:19;;;;;;;30.63;20.63;;;6.40;76.40;;;;;;2630008;30;20197;-80
2021/10/10 05:43:45;;;;;;;28.50;18.30;;;6.20;77.10;;;;;;2631048;30;20379;-82
2021/10/10 05:46:10;;;;;;;23.53;18.30;;;6.30;77.10;;;;;;2628309;30;20701;-81
2021/10/10 05:48:36;;;;;;;23.27;17.73;;;6.40;76.70;;;;;;2633255;30;20657;-81
2021/10/10 05:51:02;;;;;;;23.23;17.07;;;6.30;76.80;;;;;;2630037;30;20313;-82
2021/10/10 05:53:27;;;;;;;27.03;17.10;;;6.50;76.60;;;;;;2629786;38;20202;-83
2021/10/10 05:56:05;;;;;;;23.60;18.17;;;6.30;77.20;;;;;;2633209;30;20189;-83
2021/10/10 05:58:42;;;;;;;22.97;18.93;;;6.20;77.60;;;;;;2664175;30;20178;-84
2021/10/10 06:01:08;;;;;;;20.57;16.90;;;6.30;77.60;;;;;;2640973;30;21353;-77
2021/10/10 06:03:33;;;;;;;26.63;19.80;;;6.30;77.60;;;;;;2622483;30;20378;-79
2021/10/10 06:05:59;;;;;;;27.40;17.77;;;6.30;78.30;;;;;;2642007;30;20242;-77
2021/10/10 06:08:24;;;;;;;23.00;17.30;;;6.30;78.50;;;;;;2619320;30;20210;-77
2021/10/10 06:10:50;;;;;;;22.03;19.03;;;6.50;77.00;;;;;;2621450;30;20201;-79
2021/10/10 06:13:16;;;;;;;21.97;17.30;;;6.90;76.70;;;;;;2621654;30;20189;-77
2021/10/10 06:15:42;;;;;;;24.57;18.20;;;7.10;76.40;;;;;;2622551;38;20389;-77
2021/10/10 06:18:08;;;;;;;21.97;17.00;;;7.00;76.90;;;;;;2619232;30;21096;-76
2021/10/10 06:20:36;;;;;;;20.97;17.70;;;6.90;77.70;;;;;;2618708;30;20712;-77
2021/10/10 06:23:02;;;;;;;22.43;15.40;;;6.90;77.80;;;;;;2623607;30;21268;-76
2021/10/10 06:25:27;;;;;;;24.23;15.70;;;7.00;78.10;;;;;;2622787;38;20439;-78
2021/10/10 06:27:53;;;;;;;20.90;15.17;;;7.00;78.40;;;;;;2653354;35;20224;-77
2021/10/10 06:30:19;;;;;;;20.10;15.07;;;7.20;78.00;;;;;;2619750;30;20209;-78
2021/10/10 06:32:45;;;;;;;14.93;12.90;;;7.20;78.20;;;;;;2619267;30;20189;-77
2021/10/10 06:35:10;;;;;;;22.57;14.63;;;7.30;78.30;;;;;;2617654;30;20204;-76
2021/10/10 06:37:36;;;;;;;16.00;14.30;;;7.50;77.90;;;;;;2616953;30;20209;-77
2021/10/10 06:40:03;;;;;;;20.30;13.83;;;7.50;77.70;;;;;;2618503;30;20206;-76
2021/10/10 06:42:29;;;;;;;18.73;14.63;;;7.60;77.80;;;;;;2617491;30;20729;-76
2021/10/10 06:44:55;;;;;;;16.10;14.07;;;7.80;76.90;;;;;;2617657;30;20461;-77
2021/10/10 06:47:20;;;;;;;20.47;15.87;;;8.20;76.00;;;;;;2620325;30;20391;-76
2021/10/10 06:49:46;;;;;;;20.60;15.70;;;8.50;75.50;;;;;;2619630;30;21126;-77
2021/10/10 06:52:13;;;;;;;18.83;16.37;;;8.90;77.90;;;;;;2621172;30;20210;-76
2021/10/10 06:54:40;;;;;;;22.57;17.00;;;10.50;75.30;;;;;;2617926;30;20607;-77
2021/10/10 06:57:05;;;;;;;19.03;15.20;;;12.30;70.30;;;;;;2618096;30;20983;-77
2021/10/10 06:59:31;;;;;;;18.23;14.47;;;13.70;66.70;;;;;;2617159;38;20382;-76
2021/10/10 07:01:56;;;;;;;25.27;14.43;;;14.90;66.00;;;;;;2616467;38;20222;-77
2021/10/10 07:04:22;;;;;;;20.80;14.23;;;16.20;63.30;;;;;;2616779;30;20210;-77
2021/10/10 07:06:48;;;;;;;19.47;14.30;;;17.40;62.40;;;;;;2618325;30;20248;-78
2021/10/10 07:09:14;;;;;;;19.40;15.63;;;18.30;61.50;;;;;;2617644;38;20201;-76
2021/10/10 07:11:39;;;;;;;18.73;14.47;;;18.60;61.40;;;;;;2618676;30;20214;-77
2021/10/10 07:14:06;;;;;;;18.43;14.70;;;18.30;62.20;;;;;;2615901;30;20190;-78
2021/10/10 07:16:33;;;;;;;15.43;13.83;;;18.00;63.20;;;;;;2620322;30;20596;-77
2021/10/10 07:19:00;;;;;;;17.37;13.70;;;18.20;62.60;;;;;;2617205;30;20393;-77
2021/10/10 07:21:41;;;;;;;15.60;12.70;;;18.00;62.80;;;;;;2619280;38;21652;-76
2021/10/10 07:26:39;;;;;;;15.07;12.70;;;17.90;61.80;;;;;;2618489;30;21123;-76
2021/10/10 07:29:05;;;;;;;15.00;13.27;;;18.30;60.70;;;;;;2617942;30;20513;-76
2021/10/10 07:31:31;;;;;;;22.60;14.80;;;19.20;59.10;;;;;;2618977;30;20198;-77
2021/10/10 07:33:56;;;;;;;15.80;13.40;;;20.60;58.50;;;;;;2621136;30;20858;-76
2021/10/10 07:36:22;;;;;;;16.80;13.90;;;22.10;55.40;;;;;;2618641;38;20229;-76
2021/10/10 07:38:48;;;;;;;15.27;13.23;;;23.00;53.90;;;;;;2618526;30;20324;-77
2021/10/10 07:41:14;;;;;;;15.57;14.07;;;23.60;53.30;;;;;;2617989;30;20201;-77
2021/10/10 07:43:42;;;;;;;16.33;12.20;;;24.40;50.30;;;;;;2619916;30;20652;-76
2021/10/10 07:46:22;;;;;;;14.93;12.00;;;25.00;48.40;;;;;;2619445;30;20200;-76
2021/10/10 07:48:48;;;;;;;20.13;13.43;;;25.70;44.90;;;;;;2619131;30;20496;-77
2021/10/10 07:51:16;;;;;;;14.40;12.97;;;26.30;42.00;;;;;;2618701;30;20555;-77
2021/10/10 07:53:42;;;;;;;14.50;12.40;;;26.70;40.90;;;;;;2616343;30;20358;-77
2021/10/10 07:56:07;;;;;;;19.47;13.30;;;26.70;40.80;;;;;;2618001;30;20360;-76
2021/10/10 07:58:33;;;;;;;13.40;12.00;;;26.70;39.70;;;;;;2617170;38;20430;-76
2021/10/10 08:00:59;;;;;;;14.63;12.37;;;27.50;37.70;;;;;;2617088;30;20206;-76
2021/10/10 08:03:25;;;;;;;13.87;12.43;;;28.50;35.10;;;;;;2618075;30;20198;-76
2021/10/10 08:05:51;;;;;;;12.13;10.90;;;28.70;33.60;;;;;;2617865;38;20423;-76
2021/10/10 08:08:16;;;;;;;12.63;11.17;;;28.00;33.70;;;;;;2618940;30;20310;-76
2021/10/10 08:10:42;;;;;;;13.80;11.93;;;28.00;33.20;;;;;;2618103;30;20415;-77
2021/10/10 08:13:08;;;;;;;13.10;11.77;;;28.00;33.70;;;;;;2618608;30;20190;-76
2021/10/10 08:15:35;;;;;;;17.77;10.70;;;27.20;34.30;;;;;;2616816;30;20198;-77
2021/10/10 08:18:00;;;;;;;13.37;12.00;;;27.50;34.00;;;;;;2619764;38;20769;-76
2021/10/10 08:20:26;;;;;;;18.00;11.60;;;27.50;33.90;;;;;;2618172;38;20430;-75
2021/10/10 08:22:53;;;;;;;13.40;12.00;;;28.00;33.70;;;;;;2619768;30;20752;-76
2021/10/10 08:25:18;;;;;;;13.00;11.60;;;27.30;33.90;;;;;;2618616;30;20733;-77
2021/10/10 08:27:45;;;;;;;15.67;13.77;;;26.30;36.10;;;;;;2617757;30;20422;-76
2021/10/10 08:30:17;;;;;;;14.07;12.63;;;24.90;37.70;;;;;;2618862;30;20221;-76
2021/10/10 08:32:45;;;;;;;14.50;13.00;;;25.00;37.80;;;;;;2616956;38;20492;-76
2021/10/10 08:35:11;;;;;;;13.10;11.27;;;25.10;38.30;;;;;;2618681;30;20410;-76
2021/10/10 08:37:37;;;;;;;14.87;11.60;;;26.20;36.00;;;;;;2619616;38;20807;-76
2021/10/10 08:40:03;;;;;;;13.27;11.60;;;26.80;34.90;;;;;;2620936;30;20423;-77
2021/10/10 08:42:33;;;;;;;13.60;11.97;;;27.50;33.90;;;;;;2620791;30;20800;-76
2021/10/10 08:45:06;;;;;;;13.90;12.50;;;27.20;34.90;;;;;;2619928;30;20364;-77
2021/10/10 08:47:33;;;;;;;13.60;12.20;;;27.20;35.20;;;;;;2620523;38;21008;-76
2021/10/10 08:50:02;;;;;;;11.70;10.60;;;27.80;33.80;;;;;;2622232;30;20375;-76
2021/10/10 08:52:28;;;;;;;11.17;10.07;;;28.10;32.50;;;;;;2620377;30;20597;-76
2021/10/10 08:54:54;;;;;;;13.97;10.07;;;29.20;31.80;;;;;;2619728;38;20414;-76
2021/10/10 08:57:21;;;;;;;15.47;11.47;;;30.40;30.10;;;;;;2621179;30;20924;-77
2021/10/10 08:59:51;;;;;;;10.43;9.43;;;29.20;31.10;;;;;;2620304;30;20375;-77
2021/10/10 09:02:19;;;;;;;12.97;10.77;;;29.50;30.20;;;;;;2619249;30;20434;-76
2021/10/10 09:04:45;;;;;;;14.50;10.83;;;28.90;30.30;;;;;;2617833;30;20462;-77
2021/10/10 09:07:12;;;;;;;11.80;10.20;;;29.20;30.80;;;;;;2620359;30;20419;-76
2021/10/10 09:09:39;;;;;;;12.73;11.40;;;27.40;32.10;;;;;;2620114;38;20186;-75
2021/10/10 09:12:10;;;;;;;12.63;11.30;;;26.70;33.10;;;;;;2620889;30;20383;-75
2021/10/10 09:14:47;;;;;;;12.93;9.07;;;26.10;33.90;;;;;;2619548;30;20781;-76
2021/10/10 09:17:19;;;;;;;12.10;9.60;;;25.60;34.20;;;;;;2618614;30;20915;-77
2021/10/10 09:19:58;;;;;;;13.03;11.10;;;26.00;35.40;;;;;;2619882;38;21535;-77
2021/10/10 09:22:24;;;;;;;18.03;10.53;;;27.20;32.80;;;;;;2619573;30;21013;-75
2021/10/10 09:25:09;;;;;;;10.90;9.80;;;25.20;35.20;;;;;;2619583;30;20396;-76
2021/10/10 09:27:35;;;;;;;10.93;9.10;;;25.00;35.30;;;;;;2620651;30;20402;-76
2021/10/10 09:30:04;;;;;;;10.93;9.67;;;25.30;35.90;;;;;;2620025;30;20920;-77
2021/10/10 09:32:31;;;;;;;10.30;9.00;;;27.40;32.70;;;;;;2619976;30;20431;-77
2021/10/10 09:34:57;;;;;;;15.90;9.73;;;27.70;31.70;;;;;;2618835;30;20495;-77
2021/10/10 09:37:35;;;;;;;13.30;10.50;;;25.60;35.00;;;;;;2618039;38;20957;-78
2021/10/10 09:40:11;;;;;;;11.23;9.80;;;24.10;37.70;;;;;;2620521;38;20370;-77
2021/10/10 09:42:44;;;;;;;12.30;9.50;;;23.80;38.30;;;;;;2620127;30;20415;-80
2021/10/10 09:45:22;;;;;;;10.50;9.43;;;24.00;37.20;;;;;;2620082;30;20398;-77
2021/10/10 09:47:57;;;;;;;11.23;9.60;;;25.80;35.30;;;;;;2619389;38;20933;-75
2021/10/10 09:50:33;;;;;;;10.43;9.30;;;27.70;32.30;;;;;;2619078;30;20963;-77
2021/10/10 09:53:12;;;;;;;10.60;8.93;;;29.10;30.70;;;;;;2620174;30;21307;-77
2021/10/10 09:55:59;;;;;;;12.47;9.90;;;25.80;35.40;;;;;;2619576;30;20374;-77
2021/10/10 09:58:42;;;;;;;20.23;10.83;;;25.00;36.20;;;;;;2619230;30;20402;-78
2021/10/10 10:01:18;;;;;;;11.70;9.10;;;24.10;37.30;;;;;;2619021;30;20482;-77
2021/10/10 10:04:05;;;;;;;11.33;10.23;;;22.40;40.30;;;;;;2621057;30;20734;-75
2021/10/10 10:06:39;;;;;;;12.43;10.37;;;22.00;41.20;;;;;;2617002;31;20438;-76
2021/10/10 10:09:07;;;;;;;14.17;10.57;;;21.70;42.10;;;;;;2622409;30;20924;-77
2021/10/10 10:11:38;;;;;;;11.00;9.90;;;21.60;42.40;;;;;;2620616;38;20390;-77
2021/10/10 10:14:08;;;;;;;11.97;10.20;;;22.20;41.00;;;;;;2620634;30;20477;-77
2021/10/10 10:16:39;;;;;;;14.33;10.20;;;22.10;41.50;;;;;;2619764;30;20370;-75
2021/10/10 10:19:08;;;;;;;11.33;9.17;;;21.90;40.80;;;;;;2619113;30;21049;-76
2021/10/10 10:21:35;;;;;;;10.93;9.83;;;23.90;39.80;;;;;;2619140;30;20374;-78
2021/10/10 10:24:02;;;;;;;16.43;10.83;;;24.80;37.50;;;;;;2619702;30;20773;-76
2021/10/10 10:26:30;;;;;;;10.27;9.23;;;24.60;37.70;;;;;;2618218;30;20391;-76
2021/10/10 10:28:58;;;;;;;15.63;10.03;;;25.00;37.20;;;;;;2620706;30;20398;-77
2021/10/10 10:31:24;;;;;;;11.07;9.97;;;24.70;37.80;;;;;;2618968;38;20975;-76
2021/10/10 10:33:54;;;;;;;12.33;11.13;;;23.70;39.80;;;;;;2618641;30;20489;-76
2021/10/10 10:36:59;;;;;;;12.90;11.13;;;24.90;38.20;;;;;;2617437;38;20929;-77
2021/10/10 10:40:25;;;;;;;11.80;9.77;;;26.40;35.20;;;;;;2618420;38;20413;-77
2021/10/10 10:42:53;;;;;;;11.73;9.43;;;25.70;35.30;;;;;;2616088;38;20375;-77
2021/10/10 10:45:21;;;;;;;11.00;9.73;;;26.70;34.70;;;;;;2617016;30;20403;-76
2021/10/10 10:47:49;;;;;;;11.43;10.30;;;25.70;36.80;;;;;;2617524;30;20363;-75
2021/10/10 10:50:28;;;;;;;15.63;10.37;;;25.10;37.30;;;;;;2617397;30;20394;-75
2021/10/10 10:53:05;;;;;;;10.57;9.17;;;25.10;36.90;;;;;;2618021;30;20386;-76
2021/10/10 10:55:44;;;;;;;12.07;10.70;;;26.40;36.00;;;;;;2615414;30;20506;-77
2021/10/10 10:58:14;;;;;;;13.60;11.17;;;24.80;38.30;;;;;;2618239;30;20380;-76
2021/10/10 11:00:45;;;;;;;13.43;10.90;;;24.70;37.40;;;;;;2616685;30;20386;-75
2021/10/10 11:03:23;;;;;;;14.10;10.97;;;25.00;37.90;;;;;;2618126;30;20379;-80
2021/10/10 11:05:54;;;;;;;12.43;11.23;;;26.50;35.80;;;;;;2618660;30;20413;-76
2021/10/10 11:08:22;;;;;;;12.40;10.67;;;25.70;36.40;;;;;;2616432;30;20397;-76
2021/10/10 11:11:00;;;;;;;12.83;11.50;;;25.40;37.30;;;;;;2617955;30;20378;-77
2021/10/10 11:13:42;;;;;;;13.83;11.20;;;26.20;36.50;;;;;;2617761;30;20374;-77
2021/10/10 11:16:16;;;;;;;13.50;10.40;;;25.10;37.70;;;;;;2615262;38;20414;-76
2021/10/10 11:18:52;;;;;;;11.00;9.47;;;26.40;35.80;;;;;;2617646;30;20411;-75
2021/10/10 11:21:24;;;;;;;11.63;10.37;;;26.80;36.30;;;;;;2618084;30;20397;-77
2021/10/10 11:23:55;;;;;;;14.20;9.47;;;26.60;35.50;;;;;;2618204;30;20437;-77
2021/10/10 11:26:23;;;;;;;13.47;10.70;;;26.60;35.60;;;;;;2618030;30;20433;-76
2021/10/10 11:28:58;;;;;;;11.97;10.60;;;27.50;35.20;;;;;;2617449;38;20960;-76
2021/10/10 11:31:29;;;;;;;12.77;11.57;;;28.40;33.20;;;;;;2617240;38;20437;-75
2021/10/10 11:34:03;;;;;;;12.83;10.43;;;26.30;35.80;;;;;;2617854;30;20351;-77
2021/10/10 11:36:42;;;;;;;12.80;10.60;;;26.40;36.00;;;;;;2618252;30;20377;-78
2021/10/10 11:39:09;;;;;;;13.07;10.37;;;28.10;33.20;;;;;;2618853;38;20453;-76
2021/10/10 11:41:40;;;;;;;12.10;10.83;;;29.30;31.70;;;;;;2619230;30;20545;-79
2021/10/10 11:44:11;;;;;;;16.70;11.80;;;28.80;32.20;;;;;;2617359;30;21064;-78
2021/10/10 11:46:48;;;;;;;11.60;9.67;;;29.60;31.30;;;;;;2617333;30;20807;-78
2021/10/10 11:49:45;;;;;;;9.97;8.90;;;27.00;35.50;;;;;;2616620;30;20509;-76
2021/10/10 11:52:19;;;;;;;11.80;10.20;;;25.60;36.10;;;;;;2616876;30;20387;-76
2021/10/10 11:54:57;;;;;;;12.10;9.90;;;24.50;38.10;;;;;;2618785;30;20504;-76
2021/10/10 11:57:25;;;;;;;10.00;8.87;;;25.50;36.70;;;;;;2620526;30;20404;-75
2021/10/10 11:59:52;;;;;;;11.63;9.00;;;27.30;33.70;;;;;;2618345;30;20418;-77
2021/10/10 12:02:18;;;;;;;10.10;8.83;;;26.80;33.30;;;;;;2619438;30;20522;-74
2021/10/10 12:04:45;;;;;;;9.20;8.40;;;26.40;33.40;;;;;;2620715;30;20378;-75
2021/10/10 12:07:11;;;;;;;10.10;8.50;;;27.00;33.10;;;;;;2617042;38;20410;-77
2021/10/10 12:09:52;;;;;;;12.37;9.20;;;27.10;32.90;;;;;;2619285;38;20837;-75
2021/10/10 12:12:20;;;;;;;10.60;8.90;;;26.80;33.00;;;;;;2618402;38;20562;-75
2021/10/10 12:14:54;;;;;;;10.63;8.67;;;25.80;35.10;;;;;;2619449;30;20360;-75
2021/10/10 12:17:38;;;;;;;10.87;9.20;;;26.20;35.00;;;;;;2619781;30;20375;-75
2021/10/10 12:20:28;;;;;;;10.90;8.33;;;27.40;33.80;;;;;;2619854;30;20369;-77
2021/10/10 12:23:06;;;;;;;9.53;8.20;;;29.60;30.40;;;;;;2619886;30;21236;-77
2021/10/10 12:25:34;;;;;;;13.03;9.50;;;27.60;32.90;;;;;;2618710;30;20470;-75
2021/10/10 12:28:01;;;;;;;10.47;9.47;;;26.40;34.10;;;;;;2618694;30;20413;-78
2021/10/10 12:30:30;;;;;;;9.67;8.67;;;27.70;33.00;;;;;;2620353;30;20366;-75
2021/10/10 12:32:57;;;;;;;9.97;7.80;;;28.40;31.60;;;;;;2620546;30;20386;-77
2021/10/10 12:35:24;;;;;;;12.03;7.47;;;28.20;30.50;;;;;;2621838;30;20371;-75
2021/10/10 12:37:57;;;;;;;9.47;7.60;;;27.90;31.30;;;;;;2620816;30;20569;-79
2021/10/10 12:40:27;;;;;;;10.50;9.03;;;26.90;32.10;;;;;;2621974;38;20351;-75
2021/10/10 12:42:53;;;;;;;18.03;10.60;;;26.50;34.30;;;;;;2620952;30;21332;-75